Stanley, ND

9:47 AM CDT on October 20, 2017 (GMT -0500)
Stanley

Weather History for K08D - September, 2013

Change the Weather History Date:

Monday, September 23, 2013

  Actual Average (KMIB) Record (KMIB)
Temperature  
Mean Temperature 54 °F -  
Max Temperature 59 °F 64 °F 84 °F (2011)
Min Temperature 46 °F 38 °F 22 °F (2012)
Degree Days  
Heating Degree Days 12    
Growing Degree Days 4 (Base 50)    
Moisture  
Dew Point 55 °F    
Average Humidity 100    
Maximum Humidity 100    
Minimum Humidity 94    
Precipitation  
Precipitation 0.46 in - - ()
Sea Level Pressure  
Sea Level Pressure 29.62 in    
Wind  
Wind Speed 7 mph (WNW)    
Max Wind Speed 22 mph    
Max Gust Speed 25 mph    
Visibility 10 miles    
Events Rain , Thunderstorm    
Averages and records for this station are not official NWS values.
T = Trace of Precipitation, MM = Missing Value Source: NWS Daily Summary

Daily Weather History Graph

Daily Weather History Graph

Search for Another Location

Airport or City:

Trip Planner

Search our weather history database for the weather conditions in past years. The results will help you decide how hot, cold, wet, or windy it might be!

Date:

Astronomy

Sep. 23, 2013 Rise Set
Actual Time 7:38 AM CDT 7:44 PM CDT
Civil Twilight 7:06 AM CDT 8:15 PM CDT
Nautical Twilight 6:30 AM CDT 8:52 PM CDT
Astronomical Twilight 5:52 AM CDT 9:30 PM CDT
Moon 9:55 PM CDT (9/23) 12:21 PM CDT (9/23)
Length of Visible Light 13h 08m
Length of Day
12h 06m
Waning Gibbous, 81% of the Moon is Illuminated
Sep 23
Waning Gibbous
Sep 26
Last Quarter
Oct 4
New
Oct 11
First Quarter
Oct 18
Full

Hourly Weather History & Observations

Time (CDT) Temp. Dew Point Humidity Pressure Visibility Wind Dir Wind Speed Gust Speed Precip Events Conditions
12:15 AM 57.2 °F 57.2 °F 100% 29.48 in 10.0 mi North 5.8 mph - N/A   Scattered Clouds
12:35 AM 55.4 °F 55.4 °F 100% 29.47 in 10.0 mi North 6.9 mph - N/A   Partly Cloudy
12:55 AM 57.2 °F 57.2 °F 100% 29.47 in 10.0 mi NE 5.8 mph - N/A   Clear
1:15 AM 57.2 °F 57.2 °F 100% 29.49 in 10.0 mi North 6.9 mph - N/A   Clear
1:35 AM 57.2 °F 57.2 °F 100% 29.48 in 10.0 mi North 6.9 mph - N/A Thunderstorm Partly Cloudy
1:55 AM 57.2 °F 57.2 °F 100% 29.51 in 10.0 mi WSW 4.6 mph - N/A Thunderstorm Thunderstorm
2:15 AM 57.2 °F 57.2 °F 100% 29.53 in 9.0 mi West 3.5 mph - N/A Rain , Thunderstorm Light Thunderstorms and Rain
2:35 AM 55.4 °F 55.4 °F 100% 29.49 in 10.0 mi North 11.5 mph - 0.02 in Rain , Thunderstorm Light Rain
2:55 AM 55.4 °F 55.4 °F 100% 29.46 in 10.0 mi NNW 11.5 mph 20.7 mph 0.03 in   Mostly Cloudy
3:15 AM 55.4 °F 55.4 °F 100% 29.45 in 10.0 mi North 15.0 mph - N/A Thunderstorm Clear
3:35 AM 57.2 °F 57.2 °F 100% 29.45 in 10.0 mi North 13.8 mph 20.7 mph N/A   Scattered Clouds
3:55 AM 57.2 °F 57.2 °F 100% 29.46 in 10.0 mi North 13.8 mph 19.6 mph N/A   Partly Cloudy
4:15 AM 55.4 °F 55.4 °F 100% 29.48 in 10.0 mi NNE 8.1 mph 16.1 mph N/A   Clear
4:35 AM 55.4 °F 55.4 °F 100% 29.51 in 10.0 mi NE 4.6 mph - N/A   Clear
4:55 AM 55.4 °F 55.4 °F 100% 29.53 in 10.0 mi Calm Calm - N/A   Scattered Clouds
5:15 AM 55.4 °F 55.4 °F 100% 29.54 in 10.0 mi SE 3.5 mph - N/A   Partly Cloudy
5:35 AM 53.6 °F 53.6 °F 100% 29.54 in 10.0 mi Calm Calm - N/A   Clear
5:55 AM 53.6 °F 53.6 °F 100% 29.53 in 10.0 mi Calm Calm - N/A   Clear
6:15 AM 53.6 °F 53.6 °F 100% 29.52 in 10.0 mi NW 6.9 mph - N/A   Clear
6:35 AM 55.4 °F 55.4 °F 100% 29.52 in 10.0 mi NNW 4.6 mph - N/A   Partly Cloudy
6:55 AM 55.4 °F 55.4 °F 100% 29.54 in 10.0 mi NW 10.4 mph 18.4 mph N/A   Partly Cloudy
7:15 AM 55.4 °F 55.4 °F 100% 29.48 in 10.0 mi NNW 21.9 mph 25.3 mph N/A   Scattered Clouds
7:35 AM 55.4 °F 55.4 °F 100% 29.52 in 10.0 mi NNW 10.4 mph 18.4 mph N/A   Partly Cloudy
7:55 AM 55.4 °F 55.4 °F 100% 29.54 in 10.0 mi NNW 10.4 mph - N/A   Clear
8:15 AM 55.4 °F 55.4 °F 100% 29.54 in 10.0 mi NNW 10.4 mph - N/A   Clear
8:35 AM 55.4 °F 55.4 °F 100% 29.56 in 10.0 mi NW 6.9 mph - N/A   Partly Cloudy
8:55 AM 55.4 °F 55.4 °F 100% 29.55 in 10.0 mi NNW 12.7 mph - N/A   Partly Cloudy
9:15 AM 55.4 °F 55.4 °F 100% 29.54 in 10.0 mi North 16.1 mph 19.6 mph N/A   Partly Cloudy
9:35 AM 55.4 °F 55.4 °F 100% 29.57 in 10.0 mi NNW 5.8 mph - N/A   Partly Cloudy
9:55 AM 55.4 °F 55.4 °F 100% 29.59 in 10.0 mi NW 4.6 mph - N/A   Partly Cloudy
10:15 AM 57.2 °F 57.2 °F 100% 29.60 in 10.0 mi NW 4.6 mph - N/A   Clear
10:35 AM 57.2 °F 57.2 °F 100% 29.62 in 10.0 mi West 4.6 mph - N/A Rain Light Rain
10:55 AM 57.2 °F 57.2 °F 100% 29.61 in 10.0 mi WNW 6.9 mph - N/A Rain Light Rain
11:15 AM 57.2 °F 57.2 °F 100% 29.61 in 10.0 mi West 6.9 mph - 0.01 in Rain Light Rain
11:35 AM 55.4 °F 55.4 °F 100% 29.63 in 10.0 mi West 6.9 mph - 0.02 in Rain Light Rain
11:55 AM 55.4 °F 55.4 °F 100% 29.62 in 10.0 mi WNW 10.4 mph 16.1 mph 0.05 in Rain Light Rain
12:15 PM 55.4 °F 55.4 °F 100% 29.64 in 10.0 mi WNW 6.9 mph - 0.02 in Rain Light Rain
12:35 PM 55.4 °F 55.4 °F 100% 29.63 in 10.0 mi WNW 12.7 mph 17.3 mph 0.05 in Rain Rain
1:15 PM 55.4 °F 55.4 °F 100% 29.64 in 10.0 mi WNW 8.1 mph - 0.02 in Rain Rain
1:35 PM 55.4 °F 55.4 °F 100% 29.65 in 8.0 mi WNW 10.4 mph 17.3 mph 0.09 in Rain Rain
1:55 PM 53.6 °F 53.6 °F 100% 29.65 in 10.0 mi WNW 10.4 mph 16.1 mph 0.17 in Rain Rain
2:15 PM 53.6 °F 53.6 °F 100% 29.65 in 5.0 mi NW 9.2 mph - 0.07 in Rain Rain
2:35 PM 55.4 °F 55.4 °F 100% 29.65 in 6.0 mi WNW 8.1 mph - 0.14 in Rain Light Rain
2:55 PM 55.4 °F 55.4 °F 100% 29.65 in 10.0 mi WNW 8.1 mph - 0.16 in Rain Light Rain
3:15 PM 55.4 °F 55.4 °F 100% 29.65 in 10.0 mi NW 8.1 mph - N/A Rain Light Rain
3:35 PM 57.2 °F 57.2 °F 100% 29.65 in 10.0 mi WNW 8.1 mph - N/A Rain Light Rain
3:55 PM 57.2 °F 57.2 °F 100% 29.66 in 10.0 mi WNW 9.2 mph - N/A   Clear
4:15 PM 57.2 °F 57.2 °F 100% 29.66 in 10.0 mi WNW 9.2 mph - N/A   Scattered Clouds
4:35 PM 59.0 °F 59.0 °F 100% 29.67 in 10.0 mi WNW 6.9 mph - N/A   Mostly Cloudy
4:55 PM 59.0 °F 57.2 °F 94% 29.68 in 10.0 mi West 5.8 mph - N/A   Overcast
5:15 PM 59.0 °F 59.0 °F 100% 29.69 in 10.0 mi West 3.5 mph - N/A   Overcast
5:35 PM 59.0 °F 59.0 °F 100% 29.70 in 10.0 mi WSW 3.5 mph - N/A   Overcast
5:55 PM 59.0 °F 59.0 °F 100% 29.71 in 10.0 mi SW 3.5 mph - N/A   Overcast
6:15 PM 59.0 °F 59.0 °F 100% 29.71 in 10.0 mi SW 3.5 mph - N/A   Mostly Cloudy
6:35 PM 59.0 °F 59.0 °F 100% 29.71 in 10.0 mi WSW 4.6 mph - N/A   Mostly Cloudy
6:55 PM 59.0 °F 59.0 °F 100% 29.72 in 10.0 mi WSW 4.6 mph - N/A   Partly Cloudy
7:15 PM 57.2 °F 57.2 °F 100% 29.72 in 10.0 mi WSW 4.6 mph - N/A   Partly Cloudy
7:35 PM 57.2 °F 57.2 °F 100% 29.73 in 10.0 mi SW 3.5 mph - N/A   Clear
7:55 PM 55.4 °F 55.4 °F 100% 29.73 in 10.0 mi SSW 3.5 mph - N/A   Scattered Clouds
8:15 PM 55.4 °F 55.4 °F 100% 29.73 in 10.0 mi SSW 3.5 mph - N/A   Mostly Cloudy
8:35 PM 53.6 °F 53.6 °F 100% 29.74 in 10.0 mi SSW 5.8 mph - N/A   Partly Cloudy
8:55 PM 51.8 °F 51.8 °F 100% 29.74 in 10.0 mi SSW 6.9 mph - N/A   Clear
9:15 PM 51.8 °F 51.8 °F 100% 29.75 in 10.0 mi SSW 5.8 mph - N/A   Clear
9:35 PM 50.0 °F 50.0 °F 100% 29.75 in 10.0 mi SSW 4.6 mph - N/A   Clear
9:55 PM 50.0 °F 50.0 °F 100% 29.76 in 10.0 mi SSW 6.9 mph - N/A   Clear
10:15 PM 50.0 °F 50.0 °F 100% 29.77 in 10.0 mi SSW 4.6 mph - N/A   Clear
10:35 PM 50.0 °F 50.0 °F 100% 29.77 in 10.0 mi SSW 5.8 mph - N/A   Clear
10:55 PM 48.2 °F 48.2 °F 100% 29.78 in 10.0 mi SSW 6.9 mph - N/A   Clear
11:15 PM 48.2 °F 48.2 °F 100% 29.79 in 10.0 mi SSW 4.6 mph - N/A   Clear
11:35 PM 48.2 °F 48.2 °F 100% 29.79 in 10.0 mi SSW 5.8 mph - N/A   Clear
11:55 PM 46.4 °F 46.4 °F 100% 29.80 in 10.0 mi Calm Calm - N/A   Clear